sensor_id;sensor_type;location;lat;lon;timestamp;pressure;altitude;pressure_sealevel;temperature;humidity
11987;BME280;6053;51.382;6.768;2023-06-22T00:01:52;101461.28;;;24.91;57.59
11987;BME280;6053;51.382;6.768;2023-06-22T00:04:21;101457.00;;;24.15;59.72
11987;BME280;6053;51.382;6.768;2023-06-22T00:06:50;101465.78;;;23.94;62.62
11987;BME280;6053;51.382;6.768;2023-06-22T00:09:19;101462.75;;;23.67;62.80
11987;BME280;6053;51.382;6.768;2023-06-22T00:11:48;101461.34;;;23.45;63.21
11987;BME280;6053;51.382;6.768;2023-06-22T00:14:17;101465.50;;;24.10;63.09
11987;BME280;6053;51.382;6.768;2023-06-22T00:16:46;101458.09;;;23.81;61.67
11987;BME280;6053;51.382;6.768;2023-06-22T00:19:17;101457.19;;;24.84;59.28
11987;BME280;6053;51.382;6.768;2023-06-22T00:21:47;101459.66;;;25.18;58.24
11987;BME280;6053;51.382;6.768;2023-06-22T00:24:20;101457.16;;;25.16;57.88
11987;BME280;6053;51.382;6.768;2023-06-22T00:26:49;101460.16;;;24.46;62.19
11987;BME280;6053;51.382;6.768;2023-06-22T00:29:18;101450.06;;;24.59;60.73
11987;BME280;6053;51.382;6.768;2023-06-22T00:31:49;101452.78;;;24.12;61.62
11987;BME280;6053;51.382;6.768;2023-06-22T00:34:20;101456.75;;;24.63;61.56
11987;BME280;6053;51.382;6.768;2023-06-22T00:36:48;101440.94;;;24.48;61.95
11987;BME280;6053;51.382;6.768;2023-06-22T00:39:19;101443.94;;;24.98;61.24
11987;BME280;6053;51.382;6.768;2023-06-22T00:41:48;101449.31;;;25.13;60.63
11987;BME280;6053;51.382;6.768;2023-06-22T00:44:17;101444.13;;;23.90;63.26
11987;BME280;6053;51.382;6.768;2023-06-22T00:46:46;101446.72;;;23.86;65.94
11987;BME280;6053;51.382;6.768;2023-06-22T00:49:15;101452.91;;;24.21;63.27
11987;BME280;6053;51.382;6.768;2023-06-22T00:51:48;101440.16;;;23.29;66.35
11987;BME280;6053;51.382;6.768;2023-06-22T00:54:18;101445.06;;;23.85;66.11
11987;BME280;6053;51.382;6.768;2023-06-22T00:56:53;101442.16;;;23.04;67.38
11987;BME280;6053;51.382;6.768;2023-06-22T00:59:25;101441.03;;;25.17;61.33
11987;BME280;6053;51.382;6.768;2023-06-22T01:01:55;101439.19;;;23.82;65.45
11987;BME280;6053;51.382;6.768;2023-06-22T01:04:33;101433.75;;;23.47;66.22
11987;BME280;6053;51.382;6.768;2023-06-22T01:07:29;101437.38;;;24.42;64.61
11987;BME280;6053;51.382;6.768;2023-06-22T01:10:07;101446.63;;;24.76;63.05
11987;BME280;6053;51.382;6.768;2023-06-22T01:12:45;101431.72;;;25.30;60.18
11987;BME280;6053;51.382;6.768;2023-06-22T01:15:25;101428.06;;;25.30;60.21
11987;BME280;6053;51.382;6.768;2023-06-22T01:17:57;101419.81;;;24.13;65.08
11987;BME280;6053;51.382;6.768;2023-06-22T01:20:30;101432.00;;;25.01;62.72
11987;BME280;6053;51.382;6.768;2023-06-22T01:23:11;101429.72;;;25.45;59.45
11987;BME280;6053;51.382;6.768;2023-06-22T01:25:48;101425.03;;;25.26;60.72
11987;BME280;6053;51.382;6.768;2023-06-22T01:28:48;101423.34;;;26.12;58.17
11987;BME280;6053;51.382;6.768;2023-06-22T01:31:23;101424.50;;;24.97;62.23
11987;BME280;6053;51.382;6.768;2023-06-22T01:34:03;101421.84;;;24.26;64.07
11987;BME280;6053;51.382;6.768;2023-06-22T01:36:34;101408.44;;;24.51;63.71
11987;BME280;6053;51.382;6.768;2023-06-22T01:39:05;101406.09;;;24.85;63.84
11987;BME280;6053;51.382;6.768;2023-06-22T01:41:37;101406.72;;;25.10;61.20
11987;BME280;6053;51.382;6.768;2023-06-22T01:44:09;101412.25;;;24.87;63.44
11987;BME280;6053;51.382;6.768;2023-06-22T01:46:41;101413.03;;;25.71;60.64
11987;BME280;6053;51.382;6.768;2023-06-22T01:49:10;101410.81;;;25.17;61.08
11987;BME280;6053;51.382;6.768;2023-06-22T01:51:39;101411.59;;;24.49;64.95
11987;BME280;6053;51.382;6.768;2023-06-22T01:54:08;101415.22;;;25.24;61.85
11987;BME280;6053;51.382;6.768;2023-06-22T01:56:39;101419.38;;;25.90;59.90
11987;BME280;6053;51.382;6.768;2023-06-22T01:59:16;101413.25;;;25.60;59.15
11987;BME280;6053;51.382;6.768;2023-06-22T02:01:53;101404.66;;;25.02;62.16
11987;BME280;6053;51.382;6.768;2023-06-22T02:04:27;101405.63;;;24.51;65.08
11987;BME280;6053;51.382;6.768;2023-06-22T02:06:58;101410.56;;;25.55;61.57
11987;BME280;6053;51.382;6.768;2023-06-22T02:09:30;101403.91;;;24.68;63.60
11987;BME280;6053;51.382;6.768;2023-06-22T02:12:00;101409.19;;;25.53;60.96
11987;BME280;6053;51.382;6.768;2023-06-22T02:14:34;101404.66;;;25.02;62.37
11987;BME280;6053;51.382;6.768;2023-06-22T02:17:05;101402.25;;;25.73;60.90
11987;BME280;6053;51.382;6.768;2023-06-22T02:19:36;101401.38;;;25.86;60.46
11987;BME280;6053;51.382;6.768;2023-06-22T02:22:06;101405.88;;;25.37;61.46
11987;BME280;6053;51.382;6.768;2023-06-22T02:24:34;101397.38;;;23.51;69.51
11987;BME280;6053;51.382;6.768;2023-06-22T02:27:05;101397.13;;;23.47;69.98
11987;BME280;6053;51.382;6.768;2023-06-22T02:29:37;101399.41;;;23.02;73.70
11987;BME280;6053;51.382;6.768;2023-06-22T02:32:07;101395.22;;;23.43;70.80
11987;BME280;6053;51.382;6.768;2023-06-22T02:34:36;101396.06;;;23.62;71.09
11987;BME280;6053;51.382;6.768;2023-06-22T02:37:07;101393.09;;;23.35;70.49
11987;BME280;6053;51.382;6.768;2023-06-22T02:39:38;101387.66;;;24.46;67.99
11987;BME280;6053;51.382;6.768;2023-06-22T02:42:08;101393.09;;;24.43;67.35
11987;BME280;6053;51.382;6.768;2023-06-22T02:44:41;101385.53;;;24.38;67.33
11987;BME280;6053;51.382;6.768;2023-06-22T02:47:10;101387.06;;;24.91;65.19
11987;BME280;6053;51.382;6.768;2023-06-22T02:49:39;101382.38;;;24.26;67.99
11987;BME280;6053;51.382;6.768;2023-06-22T02:52:07;101389.19;;;24.06;68.73
11987;BME280;6053;51.382;6.768;2023-06-22T02:54:36;101381.66;;;24.02;68.46
11987;BME280;6053;51.382;6.768;2023-06-22T02:57:06;101379.22;;;24.88;65.85
11987;BME280;6053;51.382;6.768;2023-06-22T02:59:42;101388.97;;;24.96;64.25
11987;BME280;6053;51.382;6.768;2023-06-22T03:02:11;101381.22;;;25.15;64.55
11987;BME280;6053;51.382;6.768;2023-06-22T03:04:41;101372.88;;;24.82;65.63
11987;BME280;6053;51.382;6.768;2023-06-22T03:07:11;101364.69;;;25.36;64.10
11987;BME280;6053;51.382;6.768;2023-06-22T03:09:40;101370.78;;;23.57;68.95
11987;BME280;6053;51.382;6.768;2023-06-22T03:12:10;101366.88;;;24.56;66.98
11987;BME280;6053;51.382;6.768;2023-06-22T03:14:39;101365.22;;;24.22;69.46
11987;BME280;6053;51.382;6.768;2023-06-22T03:17:10;101364.63;;;24.26;67.44
11987;BME280;6053;51.382;6.768;2023-06-22T03:19:38;101353.28;;;24.44;67.06
11987;BME280;6053;51.382;6.768;2023-06-22T03:22:08;101351.19;;;25.33;63.94
11987;BME280;6053;51.382;6.768;2023-06-22T03:24:40;101358.31;;;25.67;62.05
11987;BME280;6053;51.382;6.768;2023-06-22T03:27:09;101360.16;;;25.35;63.49
11987;BME280;6053;51.382;6.768;2023-06-22T03:29:39;101353.56;;;25.39;62.86
11987;BME280;6053;51.382;6.768;2023-06-22T03:32:09;101358.00;;;24.49;67.47
11987;BME280;6053;51.382;6.768;2023-06-22T03:34:38;101351.84;;;24.88;65.60
11987;BME280;6053;51.382;6.768;2023-06-22T03:37:08;101342.63;;;24.97;64.12
11987;BME280;6053;51.382;6.768;2023-06-22T03:39:37;101340.16;;;25.45;63.42
11987;BME280;6053;51.382;6.768;2023-06-22T03:42:07;101333.13;;;25.20;63.82
11987;BME280;6053;51.382;6.768;2023-06-22T03:44:36;101334.28;;;25.05;64.80
11987;BME280;6053;51.382;6.768;2023-06-22T03:47:06;101326.94;;;24.35;67.36
11987;BME280;6053;51.382;6.768;2023-06-22T03:49:36;101319.81;;;23.78;71.90
11987;BME280;6053;51.382;6.768;2023-06-22T03:52:06;101321.69;;;23.82;69.79
11987;BME280;6053;51.382;6.768;2023-06-22T03:54:35;101320.94;;;23.20;73.05
11987;BME280;6053;51.382;6.768;2023-06-22T03:57:04;101324.50;;;22.82;77.11
11987;BME280;6053;51.382;6.768;2023-06-22T03:59:34;101324.56;;;22.53;77.54
11987;BME280;6053;51.382;6.768;2023-06-22T04:02:04;101331.69;;;22.70;77.50
11987;BME280;6053;51.382;6.768;2023-06-22T04:04:33;101324.34;;;22.74;77.47
11987;BME280;6053;51.382;6.768;2023-06-22T04:07:05;101327.63;;;23.62;74.15
11987;BME280;6053;51.382;6.768;2023-06-22T04:09:35;101336.16;;;23.75;72.13
11987;BME280;6053;51.382;6.768;2023-06-22T04:12:06;101327.31;;;23.06;74.75
11987;BME280;6053;51.382;6.768;2023-06-22T04:14:36;101324.53;;;23.25;76.04
11987;BME280;6053;51.382;6.768;2023-06-22T04:17:05;101324.34;;;23.73;72.79
11987;BME280;6053;51.382;6.768;2023-06-22T04:19:34;101328.41;;;24.00;72.40
11987;BME280;6053;51.382;6.768;2023-06-22T04:22:05;101330.28;;;22.48;78.98
11987;BME280;6053;51.382;6.768;2023-06-22T04:24:36;101333.38;;;22.71;79.89
11987;BME280;6053;51.382;6.768;2023-06-22T04:27:06;101331.22;;;22.39;80.05
11987;BME280;6053;51.382;6.768;2023-06-22T04:29:35;101328.63;;;23.14;77.34
11987;BME280;6053;51.382;6.768;2023-06-22T04:32:06;101332.56;;;22.70;79.68
11987;BME280;6053;51.382;6.768;2023-06-22T04:34:37;101333.66;;;24.07;72.34
11987;BME280;6053;51.382;6.768;2023-06-22T04:37:07;101331.88;;;24.57;70.31
11987;BME280;6053;51.382;6.768;2023-06-22T04:39:35;101336.31;;;24.31;68.85
11987;BME280;6053;51.382;6.768;2023-06-22T04:42:04;101337.84;;;24.83;68.00
11987;BME280;6053;51.382;6.768;2023-06-22T04:44:33;101328.94;;;23.69;72.71
11987;BME280;6053;51.382;6.768;2023-06-22T04:47:02;101328.09;;;22.88;78.21
11987;BME280;6053;51.382;6.768;2023-06-22T04:49:34;101320.16;;;22.47;83.24
11987;BME280;6053;51.382;6.768;2023-06-22T04:52:08;101330.91;;;22.88;81.85
11987;BME280;6053;51.382;6.768;2023-06-22T04:54:38;101324.94;;;22.95;80.92
11987;BME280;6053;51.382;6.768;2023-06-22T04:57:14;101329.44;;;23.90;75.06
11987;BME280;6053;51.382;6.768;2023-06-22T04:59:43;101335.31;;;24.08;74.15
11987;BME280;6053;51.382;6.768;2023-06-22T05:02:11;101332.00;;;24.06;73.55
11987;BME280;6053;51.382;6.768;2023-06-22T05:04:40;101335.78;;;22.00;82.82
11987;BME280;6053;51.382;6.768;2023-06-22T05:07:10;101332.44;;;22.80;81.14
11987;BME280;6053;51.382;6.768;2023-06-22T05:09:38;101327.34;;;22.58;82.58
11987;BME280;6053;51.382;6.768;2023-06-22T05:12:08;101327.09;;;22.79;78.44
11987;BME280;6053;51.382;6.768;2023-06-22T05:14:37;101325.03;;;22.36;82.83
11987;BME280;6053;51.382;6.768;2023-06-22T05:17:05;101321.81;;;22.96;80.50
11987;BME280;6053;51.382;6.768;2023-06-22T05:19:42;101327.78;;;23.14;77.17
11987;BME280;6053;51.382;6.768;2023-06-22T05:22:14;101325.72;;;23.57;74.83
11987;BME280;6053;51.382;6.768;2023-06-22T05:24:43;101325.28;;;23.50;76.51
11987;BME280;6053;51.382;6.768;2023-06-22T05:27:11;101329.78;;;23.51;75.24
11987;BME280;6053;51.382;6.768;2023-06-22T05:29:40;101333.34;;;23.19;75.99
11987;BME280;6053;51.382;6.768;2023-06-22T05:32:10;101336.38;;;23.22;79.29
11987;BME280;6053;51.382;6.768;2023-06-22T05:34:38;101342.25;;;22.30;88.54
11987;BME280;6053;51.382;6.768;2023-06-22T05:37:07;101340.84;;;21.98;91.62
11987;BME280;6053;51.382;6.768;2023-06-22T05:39:38;101338.34;;;21.62;92.15
11987;BME280;6053;51.382;6.768;2023-06-22T05:42:07;101340.13;;;21.87;92.87
11987;BME280;6053;51.382;6.768;2023-06-22T05:44:37;101346.69;;;22.36;91.63
11987;BME280;6053;51.382;6.768;2023-06-22T05:47:06;101356.06;;;22.79;87.50
11987;BME280;6053;51.382;6.768;2023-06-22T05:49:35;101363.50;;;22.70;90.47
11987;BME280;6053;51.382;6.768;2023-06-22T05:52:04;101369.28;;;21.92;99.05
11987;BME280;6053;51.382;6.768;2023-06-22T05:54:33;101362.59;;;21.87;99.26
11987;BME280;6053;51.382;6.768;2023-06-22T05:57:03;101363.88;;;21.16;100.00
11987;BME280;6053;51.382;6.768;2023-06-22T05:59:32;101360.53;;;21.59;100.00
11987;BME280;6053;51.382;6.768;2023-06-22T06:02:00;101365.47;;;22.17;100.00
11987;BME280;6053;51.382;6.768;2023-06-22T06:04:29;101354.00;;;21.24;100.00
11987;BME280;6053;51.382;6.768;2023-06-22T06:06:57;101352.25;;;21.44;100.00
11987;BME280;6053;51.382;6.768;2023-06-22T06:09:26;101347.56;;;21.24;100.00
11987;BME280;6053;51.382;6.768;2023-06-22T06:11:54;101343.97;;;21.97;100.00
11987;BME280;6053;51.382;6.768;2023-06-22T06:14:24;101343.63;;;21.69;100.00
11987;BME280;6053;51.382;6.768;2023-06-22T06:16:53;101351.19;;;21.24;100.00
11987;BME280;6053;51.382;6.768;2023-06-22T06:19:22;101349.81;;;21.22;100.00
11987;BME280;6053;51.382;6.768;2023-06-22T06:21:50;101351.72;;;21.36;100.00
11987;BME280;6053;51.382;6.768;2023-06-22T06:24:19;101349.44;;;21.38;100.00
11987;BME280;6053;51.382;6.768;2023-06-22T06:26:47;101357.28;;;22.20;100.00
11987;BME280;6053;51.382;6.768;2023-06-22T06:29:16;101354.00;;;22.37;100.00
11987;BME280;6053;51.382;6.768;2023-06-22T06:31:46;101342.78;;;21.69;100.00
11987;BME280;6053;51.382;6.768;2023-06-22T06:34:15;101342.59;;;21.60;100.00
11987;BME280;6053;51.382;6.768;2023-06-22T06:36:44;101337.97;;;21.74;100.00
11987;BME280;6053;51.382;6.768;2023-06-22T06:39:12;101342.78;;;22.03;100.00
11987;BME280;6053;51.382;6.768;2023-06-22T06:41:41;101337.44;;;22.59;100.00
11987;BME280;6053;51.382;6.768;2023-06-22T06:44:10;101343.03;;;20.73;100.00
11987;BME280;6053;51.382;6.768;2023-06-22T06:46:38;101339.34;;;22.11;100.00
11987;BME280;6053;51.382;6.768;2023-06-22T06:49:08;101337.28;;;22.51;100.00
11987;BME280;6053;51.382;6.768;2023-06-22T06:51:37;101339.41;;;22.59;100.00
11987;BME280;6053;51.382;6.768;2023-06-22T06:54:05;101332.41;;;22.32;100.00
11987;BME280;6053;51.382;6.768;2023-06-22T06:56:34;101327.84;;;22.36;100.00
11987;BME280;6053;51.382;6.768;2023-06-22T06:59:03;101340.63;;;21.55;100.00
11987;BME280;6053;51.382;6.768;2023-06-22T07:01:31;101329.06;;;21.62;100.00
11987;BME280;6053;51.382;6.768;2023-06-22T07:04:01;101320.91;;;21.65;100.00
11987;BME280;6053;51.382;6.768;2023-06-22T07:06:31;101330.66;;;22.07;100.00
11987;BME280;6053;51.382;6.768;2023-06-22T07:09:01;101330.84;;;21.03;100.00
11987;BME280;6053;51.382;6.768;2023-06-22T07:11:30;101324.47;;;22.88;100.00
11987;BME280;6053;51.382;6.768;2023-06-22T07:13:59;101327.44;;;21.56;100.00
11987;BME280;6053;51.382;6.768;2023-06-22T07:16:28;101318.19;;;22.48;100.00
11987;BME280;6053;51.382;6.768;2023-06-22T07:18:58;101324.13;;;21.83;100.00
11987;BME280;6053;51.382;6.768;2023-06-22T07:21:27;101325.94;;;21.69;100.00
11987;BME280;6053;51.382;6.768;2023-06-22T07:23:57;101327.50;;;21.85;100.00
11987;BME280;6053;51.382;6.768;2023-06-22T07:26:26;101329.00;;;21.28;100.00
11987;BME280;6053;51.382;6.768;2023-06-22T07:28:54;101320.72;;;21.07;100.00
11987;BME280;6053;51.382;6.768;2023-06-22T07:31:24;101329.56;;;22.38;100.00
11987;BME280;6053;51.382;6.768;2023-06-22T07:33:53;101330.88;;;21.82;100.00
11987;BME280;6053;51.382;6.768;2023-06-22T07:36:22;101330.03;;;21.86;100.00
11987;BME280;6053;51.382;6.768;2023-06-22T07:38:51;101313.25;;;21.32;100.00
11987;BME280;6053;51.382;6.768;2023-06-22T07:41:21;101318.03;;;20.82;100.00
11987;BME280;6053;51.382;6.768;2023-06-22T07:43:50;101314.03;;;20.13;100.00
11987;BME280;6053;51.382;6.768;2023-06-22T07:46:18;101329.56;;;21.30;100.00
11987;BME280;6053;51.382;6.768;2023-06-22T07:48:47;101312.88;;;21.04;100.00
11987;BME280;6053;51.382;6.768;2023-06-22T07:51:16;101301.72;;;21.78;100.00
11987;BME280;6053;51.382;6.768;2023-06-22T07:53:45;101296.84;;;21.88;100.00
11987;BME280;6053;51.382;6.768;2023-06-22T07:56:13;101285.00;;;21.62;100.00
11987;BME280;6053;51.382;6.768;2023-06-22T07:58:47;101272.31;;;21.70;100.00
11987;BME280;6053;51.382;6.768;2023-06-22T08:01:16;101269.38;;;21.51;100.00
11987;BME280;6053;51.382;6.768;2023-06-22T08:03:48;101263.88;;;21.70;100.00
11987;BME280;6053;51.382;6.768;2023-06-22T08:06:17;101255.94;;;21.04;100.00
11987;BME280;6053;51.382;6.768;2023-06-22T08:08:46;101246.97;;;22.04;100.00
11987;BME280;6053;51.382;6.768;2023-06-22T08:11:16;101249.09;;;22.18;100.00
11987;BME280;6053;51.382;6.768;2023-06-22T08:13:44;101229.47;;;21.15;100.00
11987;BME280;6053;51.382;6.768;2023-06-22T08:16:14;101216.22;;;22.13;100.00
11987;BME280;6053;51.382;6.768;2023-06-22T08:18:43;101209.03;;;22.07;100.00
11987;BME280;6053;51.382;6.768;2023-06-22T08:21:12;101206.22;;;21.49;100.00
11987;BME280;6053;51.382;6.768;2023-06-22T08:23:40;101201.53;;;21.97;100.00
11987;BME280;6053;51.382;6.768;2023-06-22T08:26:09;101197.19;;;22.34;100.00
11987;BME280;6053;51.382;6.768;2023-06-22T08:28:38;101205.56;;;23.01;100.00
11987;BME280;6053;51.382;6.768;2023-06-22T08:31:06;101208.69;;;22.38;100.00
11987;BME280;6053;51.382;6.768;2023-06-22T08:33:36;101220.22;;;21.83;100.00
11987;BME280;6053;51.382;6.768;2023-06-22T08:36:16;101219.41;;;22.54;100.00
11987;BME280;6053;51.382;6.768;2023-06-22T08:38:44;101216.34;;;22.03;100.00
11987;BME280;6053;51.382;6.768;2023-06-22T08:41:18;101224.25;;;22.92;100.00
11987;BME280;6053;51.382;6.768;2023-06-22T08:43:47;101227.50;;;22.61;100.00
11987;BME280;6053;51.382;6.768;2023-06-22T08:46:16;101220.06;;;22.27;100.00
11987;BME280;6053;51.382;6.768;2023-06-22T08:48:50;101227.63;;;22.51;100.00
11987;BME280;6053;51.382;6.768;2023-06-22T08:51:19;101216.00;;;23.00;100.00
11987;BME280;6053;51.382;6.768;2023-06-22T08:53:48;101210.53;;;23.42;100.00
11987;BME280;6053;51.382;6.768;2023-06-22T08:56:16;101206.03;;;23.73;100.00
11987;BME280;6053;51.382;6.768;2023-06-22T08:58:45;101210.91;;;24.56;100.00
11987;BME280;6053;51.382;6.768;2023-06-22T09:01:13;101217.13;;;24.80;100.00
11987;BME280;6053;51.382;6.768;2023-06-22T09:03:43;101205.53;;;23.71;100.00
11987;BME280;6053;51.382;6.768;2023-06-22T09:06:13;101205.16;;;24.33;100.00
11987;BME280;6053;51.382;6.768;2023-06-22T09:08:43;101203.78;;;24.03;100.00
11987;BME280;6053;51.382;6.768;2023-06-22T09:11:13;101203.38;;;24.37;100.00
11987;BME280;6053;51.382;6.768;2023-06-22T09:13:42;101208.38;;;25.40;100.00
11987;BME280;6053;51.382;6.768;2023-06-22T09:16:11;101208.44;;;24.90;100.00
11987;BME280;6053;51.382;6.768;2023-06-22T09:18:40;101202.00;;;23.61;100.00
11987;BME280;6053;51.382;6.768;2023-06-22T09:21:09;101200.44;;;23.22;100.00
11987;BME280;6053;51.382;6.768;2023-06-22T09:23:39;101212.78;;;24.05;100.00
11987;BME280;6053;51.382;6.768;2023-06-22T09:26:08;101212.78;;;24.60;100.00
11987;BME280;6053;51.382;6.768;2023-06-22T09:28:36;101214.03;;;25.04;100.00
11987;BME280;6053;51.382;6.768;2023-06-22T09:31:05;101214.47;;;25.56;100.00
11987;BME280;6053;51.382;6.768;2023-06-22T09:33:34;101207.09;;;24.74;100.00
11987;BME280;6053;51.382;6.768;2023-06-22T09:36:04;101197.44;;;24.53;100.00
11987;BME280;6053;51.382;6.768;2023-06-22T09:38:35;101201.63;;;24.55;100.00
11987;BME280;6053;51.382;6.768;2023-06-22T09:41:05;101200.84;;;24.77;100.00
11987;BME280;6053;51.382;6.768;2023-06-22T09:43:34;101203.47;;;25.10;100.00
11987;BME280;6053;51.382;6.768;2023-06-22T09:46:03;101195.63;;;26.05;100.00
11987;BME280;6053;51.382;6.768;2023-06-22T09:48:32;101193.53;;;25.57;100.00
11987;BME280;6053;51.382;6.768;2023-06-22T09:51:00;101189.31;;;26.08;100.00
11987;BME280;6053;51.382;6.768;2023-06-22T09:53:29;101180.69;;;26.14;100.00
11987;BME280;6053;51.382;6.768;2023-06-22T09:55:57;101167.38;;;26.71;100.00
11987;BME280;6053;51.382;6.768;2023-06-22T09:58:28;101166.56;;;26.14;100.00
11987;BME280;6053;51.382;6.768;2023-06-22T10:00:56;101165.56;;;26.67;100.00
11987;BME280;6053;51.382;6.768;2023-06-22T10:03:25;101161.03;;;26.08;100.00
11987;BME280;6053;51.382;6.768;2023-06-22T10:05:54;101170.28;;;25.92;100.00
11987;BME280;6053;51.382;6.768;2023-06-22T10:08:22;101170.03;;;26.10;100.00
11987;BME280;6053;51.382;6.768;2023-06-22T10:10:51;101168.41;;;26.93;100.00
11987;BME280;6053;51.382;6.768;2023-06-22T10:13:20;101151.66;;;26.39;100.00
11987;BME280;6053;51.382;6.768;2023-06-22T10:15:50;101167.44;;;26.23;100.00
11987;BME280;6053;51.382;6.768;2023-06-22T10:18:19;101165.34;;;25.44;100.00
11987;BME280;6053;51.382;6.768;2023-06-22T10:20:49;101169.97;;;25.62;100.00
11987;BME280;6053;51.382;6.768;2023-06-22T10:23:18;101155.75;;;25.76;100.00
11987;BME280;6053;51.382;6.768;2023-06-22T10:25:48;101145.75;;;25.70;100.00
11987;BME280;6053;51.382;6.768;2023-06-22T10:28:16;101152.56;;;25.77;100.00
11987;BME280;6053;51.382;6.768;2023-06-22T10:30:45;101160.75;;;26.19;100.00
11987;BME280;6053;51.382;6.768;2023-06-22T10:33:15;101156.28;;;25.10;100.00
11987;BME280;6053;51.382;6.768;2023-06-22T10:35:44;101161.75;;;25.52;100.00
11987;BME280;6053;51.382;6.768;2023-06-22T10:38:12;101159.81;;;25.92;100.00
11987;BME280;6053;51.382;6.768;2023-06-22T10:40:41;101163.50;;;25.93;100.00
11987;BME280;6053;51.382;6.768;2023-06-22T10:43:10;101167.38;;;25.52;100.00
11987;BME280;6053;51.382;6.768;2023-06-22T10:45:39;101169.94;;;24.94;100.00
11987;BME280;6053;51.382;6.768;2023-06-22T10:48:08;101174.34;;;25.23;100.00
11987;BME280;6053;51.382;6.768;2023-06-22T10:50:38;101176.06;;;25.10;100.00
11987;BME280;6053;51.382;6.768;2023-06-22T10:53:07;101187.50;;;25.28;100.00
11987;BME280;6053;51.382;6.768;2023-06-22T10:55:35;101198.41;;;25.21;100.00
11987;BME280;6053;51.382;6.768;2023-06-22T10:58:22;101187.50;;;25.28;100.00
11987;BME280;6053;51.382;6.768;2023-06-22T11:00:51;101187.91;;;24.62;100.00
11987;BME280;6053;51.382;6.768;2023-06-22T11:03:20;101185.56;;;24.42;100.00
11987;BME280;6053;51.382;6.768;2023-06-22T11:05:50;101189.75;;;24.81;100.00
11987;BME280;6053;51.382;6.768;2023-06-22T11:08:18;101184.78;;;24.64;100.00
11987;BME280;6053;51.382;6.768;2023-06-22T11:10:47;101183.41;;;24.61;100.00
11987;BME280;6053;51.382;6.768;2023-06-22T11:13:16;101172.50;;;24.46;100.00
11987;BME280;6053;51.382;6.768;2023-06-22T11:15:45;101187.81;;;23.52;100.00
11987;BME280;6053;51.382;6.768;2023-06-22T11:18:14;101197.22;;;24.08;100.00
11987;BME280;6053;51.382;6.768;2023-06-22T11:20:42;101205.38;;;24.51;100.00
11987;BME280;6053;51.382;6.768;2023-06-22T11:23:12;101210.28;;;25.31;100.00
11987;BME280;6053;51.382;6.768;2023-06-22T11:25:41;101209.25;;;25.72;100.00
11987;BME280;6053;51.382;6.768;2023-06-22T11:28:10;101217.50;;;25.91;100.00
11987;BME280;6053;51.382;6.768;2023-06-22T11:30:38;101221.84;;;25.44;100.00
11987;BME280;6053;51.382;6.768;2023-06-22T11:33:07;101233.38;;;24.47;100.00
11987;BME280;6053;51.382;6.768;2023-06-22T11:35:36;101210.97;;;23.68;100.00
11987;BME280;6053;51.382;6.768;2023-06-22T11:38:04;101208.91;;;24.70;100.00
11987;BME280;6053;51.382;6.768;2023-06-22T11:40:34;101205.44;;;25.09;100.00
11987;BME280;6053;51.382;6.768;2023-06-22T11:43:03;101189.88;;;24.98;100.00
11987;BME280;6053;51.382;6.768;2023-06-22T11:45:32;101169.06;;;23.47;100.00
11987;BME280;6053;51.382;6.768;2023-06-22T11:48:00;101152.00;;;23.06;100.00
11987;BME280;6053;51.382;6.768;2023-06-22T11:50:29;101135.59;;;22.75;100.00
11987;BME280;6053;51.382;6.768;2023-06-22T11:53:01;101116.75;;;22.95;100.00
11987;BME280;6053;51.382;6.768;2023-06-22T11:55:31;101094.63;;;22.69;100.00
11987;BME280;6053;51.382;6.768;2023-06-22T11:58:01;101071.63;;;22.48;100.00
11987;BME280;6053;51.382;6.768;2023-06-22T12:00:32;101060.28;;;22.53;100.00
11987;BME280;6053;51.382;6.768;2023-06-22T12:03:16;101043.25;;;22.07;100.00
11987;BME280;6053;51.382;6.768;2023-06-22T12:05:45;101060.13;;;23.15;100.00
11987;BME280;6053;51.382;6.768;2023-06-22T12:08:14;101078.03;;;23.80;100.00
11987;BME280;6053;51.382;6.768;2023-06-22T12:10:43;101070.03;;;23.40;100.00
11987;BME280;6053;51.382;6.768;2023-06-22T12:13:13;101062.16;;;22.96;100.00
11987;BME280;6053;51.382;6.768;2023-06-22T12:15:41;101073.56;;;23.79;100.00
11987;BME280;6053;51.382;6.768;2023-06-22T12:18:10;101079.28;;;24.37;100.00
11987;BME280;6053;51.382;6.768;2023-06-22T12:20:39;101076.94;;;24.67;100.00
11987;BME280;6053;51.382;6.768;2023-06-22T12:23:07;101058.00;;;23.81;100.00
11987;BME280;6053;51.382;6.768;2023-06-22T12:25:36;101037.00;;;23.32;100.00
11987;BME280;6053;51.382;6.768;2023-06-22T12:28:05;101026.16;;;23.39;100.00
11987;BME280;6053;51.382;6.768;2023-06-22T12:30:35;101003.41;;;23.08;100.00
11987;BME280;6053;51.382;6.768;2023-06-22T12:33:03;101000.59;;;23.36;100.00
11987;BME280;6053;51.382;6.768;2023-06-22T12:35:32;101013.31;;;23.33;100.00
11987;BME280;6053;51.382;6.768;2023-06-22T12:38:01;101014.13;;;23.06;100.00
11987;BME280;6053;51.382;6.768;2023-06-22T12:40:30;101012.81;;;23.59;100.00
11987;BME280;6053;51.382;6.768;2023-06-22T12:43:00;101013.56;;;23.78;100.00
11987;BME280;6053;51.382;6.768;2023-06-22T12:45:29;101010.28;;;23.57;100.00
11987;BME280;6053;51.382;6.768;2023-06-22T12:48:02;101005.22;;;23.32;100.00
11987;BME280;6053;51.382;6.768;2023-06-22T12:50:31;101001.81;;;22.69;100.00
11987;BME280;6053;51.382;6.768;2023-06-22T12:53:00;100999.50;;;22.57;100.00
11987;BME280;6053;51.382;6.768;2023-06-22T12:55:30;100991.22;;;22.80;100.00
11987;BME280;6053;51.382;6.768;2023-06-22T12:57:59;100985.59;;;22.80;100.00
11987;BME280;6053;51.382;6.768;2023-06-22T13:00:27;100991.94;;;23.04;100.00
11987;BME280;6053;51.382;6.768;2023-06-22T13:02:56;101000.41;;;23.18;100.00
11987;BME280;6053;51.382;6.768;2023-06-22T13:05:27;100980.06;;;23.21;100.00
11987;BME280;6053;51.382;6.768;2023-06-22T13:07:55;100975.28;;;23.22;100.00
11987;BME280;6053;51.382;6.768;2023-06-22T13:10:24;100982.66;;;22.71;100.00